Terminal Aerodrome Forecast
Issued by NWS Topeka, KS

Home | Current Version | Previous Version | Text Only | Print | Product List | Glossary On
Versions: 1 2 3 4 5 6 7 8 9 10 11 12
000
FTUS43 KTOP 020500
TAFTOP
TAF
KTOP 020520Z 0206/0306 15010KT P6SM SKC
     FM020700 18012KT P6SM VCTS SCT035CB
     FM020800 33011G19KT 4SM -TSRA OVC030CB
     FM021300 01008KT P6SM BKN060=

USA.gov is the U.S. government's official web portal to all federal, state and local government web resources and services.